Terminal Aerodrome Forecast
Issued by NWS Wilmington, OH

Current Version | Previous Version | Text Only | Print | Product List | Glossary Off
Versions: 1 2 3 4 5 6 7 8 9 10 11 12 13

672
FTUS41 KILN 210536
TAFCMH
TAF
KCMH 210536Z 2106/2206 06005KT P6SM SCT250
     FM211500 05006KT P6SM BKN150=

USA.gov is the U.S. government's official web portal to all federal, state and local government web resources and services.